Portada
METAR-TAF:

METAR-TAF

Aeroports :

Changsha, Xina

latitud: 28-11N, longitud: 113-13E, altitud: 66 m

Observació

L'informe es va fer fa 36 minuts, a les 00:00 UTC
Vent 8 kt del Nord
Temperatura 24°C
Humitat 83%
Pressió 1010 hPa
Visibilitat 10 km o més
sense núvols per sota de 1500 mi sense presència de cumulonimbus.

METAR: ZGHA 030000Z 36004MPS CAVOK 24/21 Q1010 NOSIG

Hora: 08:36 (00:36 UTC)

Pronòstic

L'informe es va fer fa 3 hores i 34 minuts, a les 21:02 UTC
Pronòstic vàlid del 03 a les 00 UTC al 03 a les 24 UTC
Vent 8 kt del Nord/Nord-Oest
Visibilitat: 5000 m
Núvols disperses a una alçada de 4000 ft
boirina

TAF: ZGHA 022102Z 0300/0324 34004MPS 5000 BR SCT040 TX33/0307Z TN23/0322Z

Observacions i pronòstics meteorològics de més de 4000 aeroports (METAR i TAF).

Les estacions disponibles són els punts grocs i vermells al mapa.

Posi el ratolí al punt desitjat per veure el nom de l'estació.

Feu clic per veure les observacions i els pronòstics meteorològics.

Per canviar el mapa: feu clic els botons verds amb una creu de color negre per apropar; al botó verd amb un guió per allunyar la imatge; o en les fletxes verdes per a mapes adjacents.


METAR-TAF: